TimeEDT,TemperatureF,Dew PointF,Humidity,Sea Level PressureIn,VisibilityMPH,Wind Direction,Wind SpeedMPH,Gust SpeedMPH,PrecipitationIn,Events,Conditions,WindDirDegrees,DateUTC
12:54 AM,57.9,50.0,75,30.01,10.0,South,6.9,-,N/A,,Overcast,170,2013-04-19 04:54:00
1:54 AM,59.0,51.1,75,30.00,10.0,South,6.9,-,N/A,,Overcast,180,2013-04-19 05:54:00
2:54 AM,61.0,52.0,72,29.98,10.0,South,18.4,28.8,N/A,,Overcast,190,2013-04-19 06:54:00
3:54 AM,61.0,51.1,70,29.93,10.0,South,13.8,24.2,N/A,,Overcast,190,2013-04-19 07:54:00
4:38 AM,60.8,51.8,72,29.92,10.0,SSW,9.2,19.6,N/A,,Mostly Cloudy,210,2013-04-19 08:38:00
4:54 AM,60.1,52.0,75,29.93,10.0,SSW,6.9,19.6,N/A,,Overcast,210,2013-04-19 08:54:00
5:01 AM,60.8,51.8,72,29.94,10.0,South,5.8,-,N/A,,Overcast,190,2013-04-19 09:01:00
5:54 AM,61.0,52.0,72,29.92,10.0,South,13.8,20.7,N/A,,Overcast,180,2013-04-19 09:54:00
6:54 AM,60.1,52.0,75,29.91,10.0,SE,9.2,-,N/A,,Overcast,140,2013-04-19 10:54:00
7:54 AM,62.1,53.1,72,29.91,10.0,South,13.8,21.9,N/A,,Overcast,190,2013-04-19 11:54:00
8:54 AM,63.0,54.0,72,29.90,10.0,South,12.7,-,N/A,,Overcast,180,2013-04-19 12:54:00
9:54 AM,63.0,54.0,72,29.88,10.0,South,9.2,-,N/A,,Overcast,190,2013-04-19 13:54:00
10:54 AM,64.9,54.0,68,29.86,10.0,SSE,17.3,24.2,N/A,,Overcast,160,2013-04-19 14:54:00
11:11 AM,64.4,53.6,68,29.85,10.0,SSE,10.4,24.2,N/A,,Mostly Cloudy,160,2013-04-19 15:11:00
11:54 AM,66.0,54.0,65,29.82,10.0,South,13.8,18.4,N/A,,Overcast,180,2013-04-19 15:54:00
12:54 PM,66.9,55.0,66,29.78,9.0,South,15.0,21.9,N/A,,Overcast,180,2013-04-19 16:54:00
1:33 PM,68.0,55.4,64,29.76,10.0,SSE,16.1,23.0,N/A,,Overcast,160,2013-04-19 17:33:00
1:54 PM,69.1,55.9,63,29.75,10.0,South,10.4,26.5,N/A,,Overcast,170,2013-04-19 17:54:00
2:54 PM,71.1,55.0,57,29.73,10.0,SSW,12.7,24.2,N/A,,Overcast,210,2013-04-19 18:54:00
3:54 PM,72.0,55.9,57,29.66,10.0,South,25.3,35.7,N/A,,Partly Cloudy,180,2013-04-19 19:54:00
4:54 PM,70.0,57.0,63,29.61,10.0,South,16.1,23.0,N/A,,Partly Cloudy,170,2013-04-19 20:54:00
5:54 PM,72.0,55.9,57,29.57,10.0,South,19.6,39.1,N/A,,Clear,180,2013-04-19 21:54:00
6:54 PM,71.1,57.0,61,29.60,10.0,South,20.7,31.1,N/A,,Overcast,180,2013-04-19 22:54:00
7:54 PM,70.0,57.0,63,29.57,10.0,South,24.2,32.2,N/A,,Mostly Cloudy,170,2013-04-19 23:54:00
8:54 PM,69.1,57.9,68,29.55,10.0,SSE,21.9,31.1,N/A,,Mostly Cloudy,160,2013-04-20 00:54:00
9:54 PM,68.0,59.0,73,29.60,10.0,WSW,20.7,34.5,0.00,Rain,Light Rain,240,2013-04-20 01:54:00
9:59 PM,60.8,53.6,77,29.63,2.5,WNW,21.9,39.1,0.11,Rain,Heavy Rain,300,2013-04-20 01:59:00
10:01 PM,57.2,51.8,82,29.64,1.5,WNW,23.0,39.1,0.17,Rain,Heavy Rain,290,2013-04-20 02:01:00
10:08 PM,55.4,51.8,88,29.67,1.0,West,15.0,31.1,0.27,Rain,Heavy Rain,270,2013-04-20 02:08:00
10:31 PM,51.8,46.4,82,29.71,3.0,WSW,9.2,-,0.52,Rain,Rain,240,2013-04-20 02:31:00
10:54 PM,50.0,46.0,86,29.73,4.0,WSW,11.5,-,0.59,Rain,Light Rain,250,2013-04-20 02:54:00
11:01 PM,48.2,44.6,87,29.73,5.0,WSW,10.4,-,0.02,Rain,Light Rain,250,2013-04-20 03:01:00
11:40 PM,46.4,44.6,93,29.73,4.0,WSW,8.1,-,0.14,Rain,Light Rain,250,2013-04-20 03:40:00
11:54 PM,46.0,43.0,89,29.73,3.0,WSW,6.9,-,0.19,Rain,Light Rain,240,2013-04-20 03:54:00